sensor_id;sensor_type;location;lat;lon;timestamp;P1;durP1;ratioP1;P2;durP2;ratioP2
78916;SDS011;68315;48.608;11.436;2024-02-04T00:00:42;6.03;;;4.65;;
78916;SDS011;68315;48.608;11.436;2024-02-04T00:03:07;5.95;;;4.25;;
78916;SDS011;68315;48.608;11.436;2024-02-04T00:05:32;5.10;;;4.60;;
78916;SDS011;68315;48.608;11.436;2024-02-04T00:07:57;5.68;;;4.70;;
78916;SDS011;68315;48.608;11.436;2024-02-04T00:10:23;5.90;;;4.60;;
78916;SDS011;68315;48.608;11.436;2024-02-04T00:12:48;5.63;;;5.03;;
78916;SDS011;68315;48.608;11.436;2024-02-04T00:15:13;5.20;;;4.20;;
78916;SDS011;68315;48.608;11.436;2024-02-04T00:17:38;6.00;;;4.15;;
78916;SDS011;68315;48.608;11.436;2024-02-04T00:20:04;4.95;;;4.38;;
78916;SDS011;68315;48.608;11.436;2024-02-04T00:22:30;4.13;;;3.70;;
78916;SDS011;68315;48.608;11.436;2024-02-04T00:24:58;4.18;;;3.55;;
78916;SDS011;68315;48.608;11.436;2024-02-04T00:27:29;4.05;;;3.65;;
78916;SDS011;68315;48.608;11.436;2024-02-04T00:29:54;3.35;;;3.05;;
78916;SDS011;68315;48.608;11.436;2024-02-04T00:32:19;3.90;;;3.10;;
78916;SDS011;68315;48.608;11.436;2024-02-04T00:34:45;3.42;;;3.13;;
78916;SDS011;68315;48.608;11.436;2024-02-04T00:37:10;5.00;;;3.15;;
78916;SDS011;68315;48.608;11.436;2024-02-04T00:39:35;3.33;;;3.00;;
78916;SDS011;68315;48.608;11.436;2024-02-04T00:42:00;4.07;;;2.70;;
78916;SDS011;68315;48.608;11.436;2024-02-04T00:44:26;3.58;;;3.00;;
78916;SDS011;68315;48.608;11.436;2024-02-04T00:46:51;2.58;;;2.38;;
78916;SDS011;68315;48.608;11.436;2024-02-04T00:49:16;2.60;;;2.30;;
78916;SDS011;68315;48.608;11.436;2024-02-04T00:51:41;2.60;;;2.38;;
78916;SDS011;68315;48.608;11.436;2024-02-04T00:54:06;2.50;;;2.22;;
78916;SDS011;68315;48.608;11.436;2024-02-04T00:56:32;2.97;;;2.42;;
78916;SDS011;68315;48.608;11.436;2024-02-04T00:58:57;2.60;;;2.40;;
78916;SDS011;68315;48.608;11.436;2024-02-04T01:01:22;3.10;;;2.20;;
78916;SDS011;68315;48.608;11.436;2024-02-04T01:03:47;2.50;;;2.30;;
78916;SDS011;68315;48.608;11.436;2024-02-04T01:06:13;5.22;;;2.25;;
78916;SDS011;68315;48.608;11.436;2024-02-04T01:08:38;2.35;;;2.15;;
78916;SDS011;68315;48.608;11.436;2024-02-04T01:11:06;2.30;;;2.08;;
78916;SDS011;68315;48.608;11.436;2024-02-04T01:13:32;2.28;;;2.08;;
78916;SDS011;68315;48.608;11.436;2024-02-04T01:15:57;2.90;;;2.58;;
78916;SDS011;68315;48.608;11.436;2024-02-04T01:18:22;2.28;;;2.08;;
78916;SDS011;68315;48.608;11.436;2024-02-04T01:20:48;1.95;;;1.75;;
78916;SDS011;68315;48.608;11.436;2024-02-04T01:23:13;2.58;;;2.38;;
78916;SDS011;68315;48.608;11.436;2024-02-04T01:25:39;2.50;;;2.30;;
78916;SDS011;68315;48.608;11.436;2024-02-04T01:28:04;2.35;;;2.15;;
78916;SDS011;68315;48.608;11.436;2024-02-04T01:30:29;2.30;;;2.10;;
78916;SDS011;68315;48.608;11.436;2024-02-04T01:32:56;2.20;;;2.00;;
78916;SDS011;68315;48.608;11.436;2024-02-04T01:35:21;2.20;;;1.95;;
78916;SDS011;68315;48.608;11.436;2024-02-04T01:37:46;2.13;;;1.92;;
78916;SDS011;68315;48.608;11.436;2024-02-04T01:40:13;1.85;;;1.75;;
78916;SDS011;68315;48.608;11.436;2024-02-04T01:42:39;2.10;;;2.00;;
78916;SDS011;68315;48.608;11.436;2024-02-04T01:45:04;2.20;;;1.90;;
78916;SDS011;68315;48.608;11.436;2024-02-04T01:47:30;2.35;;;1.98;;
78916;SDS011;68315;48.608;11.436;2024-02-04T01:49:55;2.22;;;2.03;;
78916;SDS011;68315;48.608;11.436;2024-02-04T01:52:21;2.08;;;1.88;;
78916;SDS011;68315;48.608;11.436;2024-02-04T01:54:46;2.10;;;1.80;;
78916;SDS011;68315;48.608;11.436;2024-02-04T01:57:11;2.60;;;1.80;;
78916;SDS011;68315;48.608;11.436;2024-02-04T01:59:38;2.20;;;2.00;;
78916;SDS011;68315;48.608;11.436;2024-02-04T02:02:04;2.15;;;1.67;;
78916;SDS011;68315;48.608;11.436;2024-02-04T02:04:30;2.25;;;1.70;;
78916;SDS011;68315;48.608;11.436;2024-02-04T02:06:56;1.77;;;1.67;;
78916;SDS011;68315;48.608;11.436;2024-02-04T02:09:21;1.98;;;1.77;;
78916;SDS011;68315;48.608;11.436;2024-02-04T02:11:47;2.88;;;1.75;;
78916;SDS011;68315;48.608;11.436;2024-02-04T02:14:23;1.70;;;1.60;;
78916;SDS011;68315;48.608;11.436;2024-02-04T02:16:51;1.83;;;1.73;;
78916;SDS011;68315;48.608;11.436;2024-02-04T02:25:13;2.15;;;1.80;;
78916;SDS011;68315;48.608;11.436;2024-02-04T02:27:48;1.85;;;1.70;;
78916;SDS011;68315;48.608;11.436;2024-02-04T02:30:14;2.00;;;1.80;;
78916;SDS011;68315;48.608;11.436;2024-02-04T02:32:41;4.25;;;2.42;;
78916;SDS011;68315;48.608;11.436;2024-02-04T02:35:07;2.33;;;2.13;;
78916;SDS011;68315;48.608;11.436;2024-02-04T02:37:33;2.50;;;2.30;;
78916;SDS011;68315;48.608;11.436;2024-02-04T02:42:37;3.25;;;2.67;;
78916;SDS011;68315;48.608;11.436;2024-02-04T02:45:07;2.90;;;2.70;;
78916;SDS011;68315;48.608;11.436;2024-02-04T02:47:33;3.00;;;2.70;;
78916;SDS011;68315;48.608;11.436;2024-02-04T02:49:59;3.30;;;3.00;;
78916;SDS011;68315;48.608;11.436;2024-02-04T02:52:25;3.25;;;2.95;;
78916;SDS011;68315;48.608;11.436;2024-02-04T02:54:50;3.95;;;2.85;;
78916;SDS011;68315;48.608;11.436;2024-02-04T02:57:16;4.93;;;2.88;;
78916;SDS011;68315;48.608;11.436;2024-02-04T02:59:41;3.63;;;2.72;;
78916;SDS011;68315;48.608;11.436;2024-02-04T03:02:06;2.90;;;2.60;;
78916;SDS011;68315;48.608;11.436;2024-02-04T03:04:31;3.30;;;2.90;;
78916;SDS011;68315;48.608;11.436;2024-02-04T03:06:57;3.13;;;2.60;;
78916;SDS011;68315;48.608;11.436;2024-02-04T03:09:22;3.47;;;3.05;;
78916;SDS011;68315;48.608;11.436;2024-02-04T03:11:47;3.40;;;3.10;;
78916;SDS011;68315;48.608;11.436;2024-02-04T03:14:14;3.85;;;3.15;;
78916;SDS011;68315;48.608;11.436;2024-02-04T03:16:43;5.25;;;3.30;;
78916;SDS011;68315;48.608;11.436;2024-02-04T03:19:09;3.22;;;2.78;;
78916;SDS011;68315;48.608;11.436;2024-02-04T03:21:34;3.47;;;3.10;;
78916;SDS011;68315;48.608;11.436;2024-02-04T03:23:59;3.33;;;2.88;;
78916;SDS011;68315;48.608;11.436;2024-02-04T03:26:25;3.30;;;3.00;;
78916;SDS011;68315;48.608;11.436;2024-02-04T03:28:50;4.07;;;3.33;;
78916;SDS011;68315;48.608;11.436;2024-02-04T03:31:21;3.25;;;2.78;;
78916;SDS011;68315;48.608;11.436;2024-02-04T03:33:47;2.90;;;2.70;;
78916;SDS011;68315;48.608;11.436;2024-02-04T03:36:15;3.33;;;3.00;;
78916;SDS011;68315;48.608;11.436;2024-02-04T03:38:43;3.35;;;2.90;;
78916;SDS011;68315;48.608;11.436;2024-02-04T03:41:08;3.60;;;3.25;;
78916;SDS011;68315;48.608;11.436;2024-02-04T03:43:35;2.88;;;2.58;;
78916;SDS011;68315;48.608;11.436;2024-02-04T03:46:01;2.80;;;2.60;;
78916;SDS011;68315;48.608;11.436;2024-02-04T03:48:26;3.15;;;2.85;;
78916;SDS011;68315;48.608;11.436;2024-02-04T03:50:51;2.50;;;2.25;;
78916;SDS011;68315;48.608;11.436;2024-02-04T03:53:16;2.70;;;2.50;;
78916;SDS011;68315;48.608;11.436;2024-02-04T03:55:42;2.00;;;1.80;;
78916;SDS011;68315;48.608;11.436;2024-02-04T03:58:07;2.38;;;2.17;;
78916;SDS011;68315;48.608;11.436;2024-02-04T04:00:33;1.88;;;1.77;;
78916;SDS011;68315;48.608;11.436;2024-02-04T04:02:58;2.40;;;2.20;;
78916;SDS011;68315;48.608;11.436;2024-02-04T04:05:23;2.15;;;1.95;;
78916;SDS011;68315;48.608;11.436;2024-02-04T04:07:48;2.72;;;2.50;;
78916;SDS011;68315;48.608;11.436;2024-02-04T04:10:14;3.75;;;2.50;;
78916;SDS011;68315;48.608;11.436;2024-02-04T04:12:39;2.65;;;2.38;;
78916;SDS011;68315;48.608;11.436;2024-02-04T04:15:04;2.85;;;2.28;;
78916;SDS011;68315;48.608;11.436;2024-02-04T04:17:30;3.03;;;2.72;;
78916;SDS011;68315;48.608;11.436;2024-02-04T04:19:55;2.63;;;2.20;;
78916;SDS011;68315;48.608;11.436;2024-02-04T04:22:20;2.70;;;2.50;;
78916;SDS011;68315;48.608;11.436;2024-02-04T04:24:46;4.60;;;2.35;;
78916;SDS011;68315;48.608;11.436;2024-02-04T04:27:11;2.42;;;2.22;;
78916;SDS011;68315;48.608;11.436;2024-02-04T04:29:36;2.85;;;2.55;;
78916;SDS011;68315;48.608;11.436;2024-02-04T04:32:01;2.80;;;2.58;;
78916;SDS011;68315;48.608;11.436;2024-02-04T04:34:27;3.30;;;2.55;;
78916;SDS011;68315;48.608;11.436;2024-02-04T04:36:52;3.08;;;2.67;;
78916;SDS011;68315;48.608;11.436;2024-02-04T04:39:17;3.78;;;2.80;;
78916;SDS011;68315;48.608;11.436;2024-02-04T04:41:43;3.10;;;2.60;;
78916;SDS011;68315;48.608;11.436;2024-02-04T04:44:09;3.13;;;2.72;;
78916;SDS011;68315;48.608;11.436;2024-02-04T04:46:37;3.05;;;2.75;;
78916;SDS011;68315;48.608;11.436;2024-02-04T04:49:02;2.72;;;2.50;;
78916;SDS011;68315;48.608;11.436;2024-02-04T04:51:28;2.88;;;2.40;;
78916;SDS011;68315;48.608;11.436;2024-02-04T04:53:53;3.22;;;2.30;;
78916;SDS011;68315;48.608;11.436;2024-02-04T04:56:18;3.10;;;2.80;;
78916;SDS011;68315;48.608;11.436;2024-02-04T04:58:43;3.10;;;2.80;;
78916;SDS011;68315;48.608;11.436;2024-02-04T05:01:09;2.90;;;2.67;;
78916;SDS011;68315;48.608;11.436;2024-02-04T05:03:34;2.72;;;2.50;;
78916;SDS011;68315;48.608;11.436;2024-02-04T05:05:59;3.83;;;3.33;;
78916;SDS011;68315;48.608;11.436;2024-02-04T05:08:26;3.20;;;2.90;;
78916;SDS011;68315;48.608;11.436;2024-02-04T05:10:51;4.07;;;3.15;;
78916;SDS011;68315;48.608;11.436;2024-02-04T05:13:16;3.53;;;3.08;;
78916;SDS011;68315;48.608;11.436;2024-02-04T05:15:41;3.33;;;3.03;;
78916;SDS011;68315;48.608;11.436;2024-02-04T05:18:07;3.25;;;2.80;;
78916;SDS011;68315;48.608;11.436;2024-02-04T05:20:32;3.38;;;2.78;;
78916;SDS011;68315;48.608;11.436;2024-02-04T05:22:57;3.40;;;2.70;;
78916;SDS011;68315;48.608;11.436;2024-02-04T05:25:22;4.47;;;3.13;;
78916;SDS011;68315;48.608;11.436;2024-02-04T05:27:48;4.57;;;2.75;;
78916;SDS011;68315;48.608;11.436;2024-02-04T05:30:14;3.92;;;3.00;;
78916;SDS011;68315;48.608;11.436;2024-02-04T05:32:40;3.38;;;2.90;;
78916;SDS011;68315;48.608;11.436;2024-02-04T05:35:07;3.58;;;2.70;;
78916;SDS011;68315;48.608;11.436;2024-02-04T05:37:32;3.45;;;2.88;;
78916;SDS011;68315;48.608;11.436;2024-02-04T05:39:58;3.45;;;3.13;;
78916;SDS011;68315;48.608;11.436;2024-02-04T05:42:23;3.08;;;2.78;;
78916;SDS011;68315;48.608;11.436;2024-02-04T05:44:49;3.67;;;3.13;;
78916;SDS011;68315;48.608;11.436;2024-02-04T05:47:14;3.72;;;3.10;;
78916;SDS011;68315;48.608;11.436;2024-02-04T05:49:39;4.47;;;3.10;;
78916;SDS011;68315;48.608;11.436;2024-02-04T05:52:06;3.45;;;2.88;;
78916;SDS011;68315;48.608;11.436;2024-02-04T05:54:31;3.85;;;3.03;;
78916;SDS011;68315;48.608;11.436;2024-02-04T05:56:56;3.22;;;2.75;;
78916;SDS011;68315;48.608;11.436;2024-02-04T05:59:21;4.13;;;2.85;;
78916;SDS011;68315;48.608;11.436;2024-02-04T06:01:47;4.28;;;3.03;;
78916;SDS011;68315;48.608;11.436;2024-02-04T06:04:12;4.35;;;2.95;;
78916;SDS011;68315;48.608;11.436;2024-02-04T06:06:38;2.83;;;2.33;;
78916;SDS011;68315;48.608;11.436;2024-02-04T06:09:03;3.40;;;2.88;;
78916;SDS011;68315;48.608;11.436;2024-02-04T06:11:28;3.13;;;2.83;;
78916;SDS011;68315;48.608;11.436;2024-02-04T06:13:54;4.15;;;3.13;;
78916;SDS011;68315;48.608;11.436;2024-02-04T06:16:19;2.97;;;2.60;;
78916;SDS011;68315;48.608;11.436;2024-02-04T06:18:44;3.13;;;2.83;;
78916;SDS011;68315;48.608;11.436;2024-02-04T06:21:09;2.90;;;2.60;;
78916;SDS011;68315;48.608;11.436;2024-02-04T06:23:35;2.85;;;2.50;;
78916;SDS011;68315;48.608;11.436;2024-02-04T06:26:05;3.08;;;2.78;;
78916;SDS011;68315;48.608;11.436;2024-02-04T06:28:30;3.10;;;2.80;;
78916;SDS011;68315;48.608;11.436;2024-02-04T06:30:55;2.95;;;2.63;;
78916;SDS011;68315;48.608;11.436;2024-02-04T06:33:20;3.30;;;2.85;;
78916;SDS011;68315;48.608;11.436;2024-02-04T06:35:47;3.03;;;2.70;;
78916;SDS011;68315;48.608;11.436;2024-02-04T06:38:12;3.10;;;2.78;;
78916;SDS011;68315;48.608;11.436;2024-02-04T06:40:37;3.38;;;3.08;;
78916;SDS011;68315;48.608;11.436;2024-02-04T06:43:03;3.45;;;2.97;;
78916;SDS011;68315;48.608;11.436;2024-02-04T06:45:28;4.38;;;2.80;;
78916;SDS011;68315;48.608;11.436;2024-02-04T06:47:53;4.68;;;2.92;;
78916;SDS011;68315;48.608;11.436;2024-02-04T06:50:19;3.42;;;3.00;;
78916;SDS011;68315;48.608;11.436;2024-02-04T06:52:44;4.43;;;3.30;;
78916;SDS011;68315;48.608;11.436;2024-02-04T06:55:11;3.65;;;3.10;;
78916;SDS011;68315;48.608;11.436;2024-02-04T06:57:36;3.72;;;3.20;;
78916;SDS011;68315;48.608;11.436;2024-02-04T07:00:01;3.85;;;2.95;;
78916;SDS011;68315;48.608;11.436;2024-02-04T07:02:30;4.47;;;3.58;;
78916;SDS011;68315;48.608;11.436;2024-02-04T07:04:56;3.80;;;3.40;;
78916;SDS011;68315;48.608;11.436;2024-02-04T07:07:21;4.32;;;3.50;;
78916;SDS011;68315;48.608;11.436;2024-02-04T07:09:46;5.10;;;3.38;;
78916;SDS011;68315;48.608;11.436;2024-02-04T07:12:11;6.05;;;3.85;;
78916;SDS011;68315;48.608;11.436;2024-02-04T07:14:37;4.30;;;3.63;;
78916;SDS011;68315;48.608;11.436;2024-02-04T07:17:02;4.53;;;3.72;;
78916;SDS011;68315;48.608;11.436;2024-02-04T07:19:27;4.82;;;3.65;;
78916;SDS011;68315;48.608;11.436;2024-02-04T07:21:52;6.35;;;4.18;;
78916;SDS011;68315;48.608;11.436;2024-02-04T07:24:17;3.83;;;3.40;;
78916;SDS011;68315;48.608;11.436;2024-02-04T07:26:44;4.55;;;3.92;;
78916;SDS011;68315;48.608;11.436;2024-02-04T07:29:11;6.57;;;3.67;;
78916;SDS011;68315;48.608;11.436;2024-02-04T07:31:37;4.35;;;3.22;;
78916;SDS011;68315;48.608;11.436;2024-02-04T07:34:02;3.72;;;3.20;;
78916;SDS011;68315;48.608;11.436;2024-02-04T07:36:28;4.45;;;3.28;;
78916;SDS011;68315;48.608;11.436;2024-02-04T07:38:53;4.82;;;3.70;;
78916;SDS011;68315;48.608;11.436;2024-02-04T07:41:18;4.25;;;3.38;;
78916;SDS011;68315;48.608;11.436;2024-02-04T07:43:43;4.93;;;3.40;;
78916;SDS011;68315;48.608;11.436;2024-02-04T07:46:09;4.82;;;3.50;;
78916;SDS011;68315;48.608;11.436;2024-02-04T07:48:35;6.15;;;3.38;;
78916;SDS011;68315;48.608;11.436;2024-02-04T07:51:00;4.63;;;3.22;;
78916;SDS011;68315;48.608;11.436;2024-02-04T07:53:25;4.53;;;3.20;;
78916;SDS011;68315;48.608;11.436;2024-02-04T07:55:50;3.35;;;2.90;;
78916;SDS011;68315;48.608;11.436;2024-02-04T07:58:16;4.05;;;3.00;;
78916;SDS011;68315;48.608;11.436;2024-02-04T08:00:41;4.00;;;2.83;;
78916;SDS011;68315;48.608;11.436;2024-02-04T08:03:06;3.45;;;2.75;;
78916;SDS011;68315;48.608;11.436;2024-02-04T08:05:32;3.78;;;2.97;;
78916;SDS011;68315;48.608;11.436;2024-02-04T08:08:00;4.00;;;2.85;;
78916;SDS011;68315;48.608;11.436;2024-02-04T08:10:25;3.72;;;3.10;;
78916;SDS011;68315;48.608;11.436;2024-02-04T08:12:50;3.53;;;2.90;;
78916;SDS011;68315;48.608;11.436;2024-02-04T08:15:17;3.17;;;2.58;;
78916;SDS011;68315;48.608;11.436;2024-02-04T08:17:43;4.15;;;2.67;;
78916;SDS011;68315;48.608;11.436;2024-02-04T08:20:08;5.82;;;3.20;;
78916;SDS011;68315;48.608;11.436;2024-02-04T08:22:33;3.70;;;3.00;;
78916;SDS011;68315;48.608;11.436;2024-02-04T08:24:59;3.72;;;2.92;;
78916;SDS011;68315;48.608;11.436;2024-02-04T08:27:24;4.32;;;3.25;;
78916;SDS011;68315;48.608;11.436;2024-02-04T08:29:49;3.67;;;2.97;;
78916;SDS011;68315;48.608;11.436;2024-02-04T08:32:15;3.58;;;2.55;;
78916;SDS011;68315;48.608;11.436;2024-02-04T08:34:40;4.03;;;3.00;;
78916;SDS011;68315;48.608;11.436;2024-02-04T08:37:05;3.60;;;2.55;;
78916;SDS011;68315;48.608;11.436;2024-02-04T08:39:30;4.95;;;2.88;;
78916;SDS011;68315;48.608;11.436;2024-02-04T08:41:56;4.05;;;2.85;;
78916;SDS011;68315;48.608;11.436;2024-02-04T08:44:21;5.05;;;3.15;;
78916;SDS011;68315;48.608;11.436;2024-02-04T08:46:49;3.40;;;2.88;;
78916;SDS011;68315;48.608;11.436;2024-02-04T08:49:14;4.13;;;2.90;;
78916;SDS011;68315;48.608;11.436;2024-02-04T08:51:39;5.43;;;2.92;;
78916;SDS011;68315;48.608;11.436;2024-02-04T08:54:05;5.18;;;3.15;;
78916;SDS011;68315;48.608;11.436;2024-02-04T08:56:30;5.07;;;2.97;;
78916;SDS011;68315;48.608;11.436;2024-02-04T08:58:55;6.47;;;3.20;;
78916;SDS011;68315;48.608;11.436;2024-02-04T09:01:21;4.50;;;3.25;;
78916;SDS011;68315;48.608;11.436;2024-02-04T09:03:47;2.97;;;2.63;;
78916;SDS011;68315;48.608;11.436;2024-02-04T09:06:12;4.72;;;3.08;;
78916;SDS011;68315;48.608;11.436;2024-02-04T09:08:37;5.22;;;3.22;;
78916;SDS011;68315;48.608;11.436;2024-02-04T09:11:02;3.75;;;3.22;;
78916;SDS011;68315;48.608;11.436;2024-02-04T09:13:28;3.83;;;2.90;;
78916;SDS011;68315;48.608;11.436;2024-02-04T09:15:53;4.05;;;3.10;;
78916;SDS011;68315;48.608;11.436;2024-02-04T09:18:19;4.13;;;3.15;;
78916;SDS011;68315;48.608;11.436;2024-02-04T09:20:44;3.60;;;3.08;;
78916;SDS011;68315;48.608;11.436;2024-02-04T09:23:10;4.60;;;3.17;;
78916;SDS011;68315;48.608;11.436;2024-02-04T09:25:35;5.15;;;2.90;;
78916;SDS011;68315;48.608;11.436;2024-02-04T09:28:00;5.43;;;3.15;;
78916;SDS011;68315;48.608;11.436;2024-02-04T09:30:25;3.85;;;3.15;;
78916;SDS011;68315;48.608;11.436;2024-02-04T09:32:51;4.60;;;3.00;;
78916;SDS011;68315;48.608;11.436;2024-02-04T09:35:16;4.13;;;2.50;;
78916;SDS011;68315;48.608;11.436;2024-02-04T09:37:42;3.38;;;2.70;;
78916;SDS011;68315;48.608;11.436;2024-02-04T09:40:07;3.38;;;2.30;;
78916;SDS011;68315;48.608;11.436;2024-02-04T09:42:33;3.22;;;2.25;;
78916;SDS011;68315;48.608;11.436;2024-02-04T09:44:58;2.40;;;1.98;;
78916;SDS011;68315;48.608;11.436;2024-02-04T09:47:24;1.90;;;1.70;;
78916;SDS011;68315;48.608;11.436;2024-02-04T09:49:50;2.92;;;2.00;;
78916;SDS011;68315;48.608;11.436;2024-02-04T09:52:18;2.40;;;2.00;;
78916;SDS011;68315;48.608;11.436;2024-02-04T09:54:50;2.40;;;2.10;;
78916;SDS011;68315;48.608;11.436;2024-02-04T10:02:12;2.23;;;2.00;;
78916;SDS011;68315;48.608;11.436;2024-02-04T10:04:38;3.40;;;2.20;;
78916;SDS011;68315;48.608;11.436;2024-02-04T10:07:04;3.17;;;2.20;;
78916;SDS011;68315;48.608;11.436;2024-02-04T10:09:29;2.10;;;1.90;;
78916;SDS011;68315;48.608;11.436;2024-02-04T10:11:55;3.55;;;2.60;;
78916;SDS011;68315;48.608;11.436;2024-02-04T10:14:20;2.50;;;2.03;;
78916;SDS011;68315;48.608;11.436;2024-02-04T10:16:45;2.97;;;2.33;;
78916;SDS011;68315;48.608;11.436;2024-02-04T10:19:11;2.63;;;2.20;;
78916;SDS011;68315;48.608;11.436;2024-02-04T10:21:36;2.35;;;2.00;;
78916;SDS011;68315;48.608;11.436;2024-02-04T10:24:02;3.05;;;2.30;;
78916;SDS011;68315;48.608;11.436;2024-02-04T10:26:30;2.80;;;2.47;;
78916;SDS011;68315;48.608;11.436;2024-02-04T10:28:57;2.60;;;2.30;;
78916;SDS011;68315;48.608;11.436;2024-02-04T10:31:23;2.92;;;1.98;;
78916;SDS011;68315;48.608;11.436;2024-02-04T10:33:49;2.75;;;1.90;;
78916;SDS011;68315;48.608;11.436;2024-02-04T10:36:14;3.50;;;1.67;;
78916;SDS011;68315;48.608;11.436;2024-02-04T10:38:40;1.85;;;1.75;;
78916;SDS011;68315;48.608;11.436;2024-02-04T10:41:05;2.55;;;2.08;;
78916;SDS011;68315;48.608;11.436;2024-02-04T10:43:32;4.68;;;1.77;;
78916;SDS011;68315;48.608;11.436;2024-02-04T10:46:00;2.15;;;1.70;;
78916;SDS011;68315;48.608;11.436;2024-02-04T10:48:30;2.15;;;1.85;;
78916;SDS011;68315;48.608;11.436;2024-02-04T10:51:06;2.92;;;1.60;;
78916;SDS011;68315;48.608;11.436;2024-02-04T10:53:37;2.67;;;1.80;;
78916;SDS011;68315;48.608;11.436;2024-02-04T10:56:03;1.75;;;1.50;;
78916;SDS011;68315;48.608;11.436;2024-02-04T10:58:31;4.28;;;1.55;;
78916;SDS011;68315;48.608;11.436;2024-02-04T11:00:58;1.58;;;1.48;;
78916;SDS011;68315;48.608;11.436;2024-02-04T11:03:23;1.63;;;1.52;;
78916;SDS011;68315;48.608;11.436;2024-02-04T11:05:52;3.78;;;1.90;;
78916;SDS011;68315;48.608;11.436;2024-02-04T11:08:18;1.83;;;1.65;;
78916;SDS011;68315;48.608;11.436;2024-02-04T11:10:43;2.25;;;1.50;;
78916;SDS011;68315;48.608;11.436;2024-02-04T11:13:09;2.08;;;1.67;;
78916;SDS011;68315;48.608;11.436;2024-02-04T11:15:36;2.38;;;1.75;;
78916;SDS011;68315;48.608;11.436;2024-02-04T11:23:44;1.85;;;1.70;;
78916;SDS011;68315;48.608;11.436;2024-02-04T11:26:12;6.15;;;1.80;;
78916;SDS011;68315;48.608;11.436;2024-02-04T11:28:38;2.20;;;1.60;;
78916;SDS011;68315;48.608;11.436;2024-02-04T11:31:04;4.20;;;2.20;;
78916;SDS011;68315;48.608;11.436;2024-02-04T11:33:30;2.03;;;1.83;;
78916;SDS011;68315;48.608;11.436;2024-02-04T11:35:59;1.65;;;1.45;;
78916;SDS011;68315;48.608;11.436;2024-02-04T11:38:29;2.55;;;1.60;;
78916;SDS011;68315;48.608;11.436;2024-02-04T11:41:02;3.53;;;1.95;;
78916;SDS011;68315;48.608;11.436;2024-02-04T11:43:28;2.65;;;1.65;;
78916;SDS011;68315;48.608;11.436;2024-02-04T11:45:54;2.10;;;1.85;;
78916;SDS011;68315;48.608;11.436;2024-02-04T11:48:19;1.92;;;1.73;;
78916;SDS011;68315;48.608;11.436;2024-02-04T11:50:51;2.83;;;1.75;;
78916;SDS011;68315;48.608;11.436;2024-02-04T11:53:17;1.60;;;1.50;;
78916;SDS011;68315;48.608;11.436;2024-02-04T11:55:43;2.08;;;1.70;;
78916;SDS011;68315;48.608;11.436;2024-02-04T11:58:10;3.25;;;2.13;;
78916;SDS011;68315;48.608;11.436;2024-02-04T12:00:36;5.30;;;1.63;;
78916;SDS011;68315;48.608;11.436;2024-02-04T12:03:02;2.67;;;1.95;;
78916;SDS011;68315;48.608;11.436;2024-02-04T12:05:31;2.08;;;1.80;;
78916;SDS011;68315;48.608;11.436;2024-02-04T12:08:01;2.75;;;1.67;;
78916;SDS011;68315;48.608;11.436;2024-02-04T12:10:31;3.33;;;2.00;;
78916;SDS011;68315;48.608;11.436;2024-02-04T12:13:01;3.30;;;1.80;;
78916;SDS011;68315;48.608;11.436;2024-02-04T12:15:28;2.00;;;1.60;;
78916;SDS011;68315;48.608;11.436;2024-02-04T12:17:54;3.40;;;2.45;;
78916;SDS011;68315;48.608;11.436;2024-02-04T12:20:19;2.38;;;2.03;;
78916;SDS011;68315;48.608;11.436;2024-02-04T12:22:44;4.22;;;1.90;;
78916;SDS011;68315;48.608;11.436;2024-02-04T12:25:10;4.10;;;1.83;;
78916;SDS011;68315;48.608;11.436;2024-02-04T12:27:35;2.45;;;1.73;;
78916;SDS011;68315;48.608;11.436;2024-02-04T12:30:00;2.45;;;1.65;;
78916;SDS011;68315;48.608;11.436;2024-02-04T12:32:26;4.07;;;1.77;;
78916;SDS011;68315;48.608;11.436;2024-02-04T12:34:51;2.85;;;1.73;;
78916;SDS011;68315;48.608;11.436;2024-02-04T12:37:19;2.80;;;1.70;;
78916;SDS011;68315;48.608;11.436;2024-02-04T12:39:44;2.50;;;1.70;;
78916;SDS011;68315;48.608;11.436;2024-02-04T12:42:09;3.38;;;1.70;;
78916;SDS011;68315;48.608;11.436;2024-02-04T12:44:35;2.30;;;1.77;;
78916;SDS011;68315;48.608;11.436;2024-02-04T12:47:00;2.67;;;1.42;;
78916;SDS011;68315;48.608;11.436;2024-02-04T12:49:26;3.15;;;1.60;;
78916;SDS011;68315;48.608;11.436;2024-02-04T12:51:51;4.07;;;1.80;;
78916;SDS011;68315;48.608;11.436;2024-02-04T12:54:20;1.88;;;1.60;;
78916;SDS011;68315;48.608;11.436;2024-02-04T12:56:50;1.77;;;1.60;;
78916;SDS011;68315;48.608;11.436;2024-02-04T12:59:23;1.83;;;1.42;;
78916;SDS011;68315;48.608;11.436;2024-02-04T13:01:54;3.17;;;1.40;;
78916;SDS011;68315;48.608;11.436;2024-02-04T13:04:20;3.55;;;1.60;;
78916;SDS011;68315;48.608;11.436;2024-02-04T13:06:46;2.90;;;1.50;;
78916;SDS011;68315;48.608;11.436;2024-02-04T13:09:11;1.90;;;1.70;;
78916;SDS011;68315;48.608;11.436;2024-02-04T13:11:40;2.00;;;1.70;;
78916;SDS011;68315;48.608;11.436;2024-02-04T13:14:06;2.80;;;1.77;;
78916;SDS011;68315;48.608;11.436;2024-02-04T13:16:31;3.17;;;1.70;;
78916;SDS011;68315;48.608;11.436;2024-02-04T13:18:56;3.65;;;1.95;;
78916;SDS011;68315;48.608;11.436;2024-02-04T13:21:22;8.45;;;4.60;;
78916;SDS011;68315;48.608;11.436;2024-02-04T13:23:50;4.50;;;1.80;;
78916;SDS011;68315;48.608;11.436;2024-02-04T13:26:15;1.60;;;1.33;;
78916;SDS011;68315;48.608;11.436;2024-02-04T13:28:41;2.58;;;1.33;;
78916;SDS011;68315;48.608;11.436;2024-02-04T13:31:07;2.67;;;1.50;;
78916;SDS011;68315;48.608;11.436;2024-02-04T13:33:33;1.70;;;1.60;;
78916;SDS011;68315;48.608;11.436;2024-02-04T13:35:58;2.22;;;1.98;;
78916;SDS011;68315;48.608;11.436;2024-02-04T13:38:23;2.45;;;1.60;;
78916;SDS011;68315;48.608;11.436;2024-02-04T13:40:49;1.92;;;1.60;;
78916;SDS011;68315;48.608;11.436;2024-02-04T13:43:14;2.15;;;1.95;;
78916;SDS011;68315;48.608;11.436;2024-02-04T13:45:39;2.10;;;1.38;;
78916;SDS011;68315;48.608;11.436;2024-02-04T13:48:04;2.22;;;1.70;;
78916;SDS011;68315;48.608;11.436;2024-02-04T13:50:30;1.60;;;1.50;;
78916;SDS011;68315;48.608;11.436;2024-02-04T13:52:55;2.92;;;1.50;;
78916;SDS011;68315;48.608;11.436;2024-02-04T13:55:24;1.50;;;1.40;;
78916;SDS011;68315;48.608;11.436;2024-02-04T13:57:50;1.95;;;1.80;;
78916;SDS011;68315;48.608;11.436;2024-02-04T14:00:15;3.15;;;1.70;;
78916;SDS011;68315;48.608;11.436;2024-02-04T14:02:42;1.63;;;1.50;;
78916;SDS011;68315;48.608;11.436;2024-02-04T14:05:08;3.22;;;1.50;;
78916;SDS011;68315;48.608;11.436;2024-02-04T14:07:33;2.75;;;1.70;;
78916;SDS011;68315;48.608;11.436;2024-02-04T14:09:58;2.60;;;1.60;;
78916;SDS011;68315;48.608;11.436;2024-02-04T14:12:23;3.38;;;1.50;;
78916;SDS011;68315;48.608;11.436;2024-02-04T14:14:48;2.22;;;1.67;;
78916;SDS011;68315;48.608;11.436;2024-02-04T14:17:14;2.67;;;1.33;;
78916;SDS011;68315;48.608;11.436;2024-02-04T14:19:42;2.35;;;1.45;;
78916;SDS011;68315;48.608;11.436;2024-02-04T14:22:10;2.55;;;1.60;;
78916;SDS011;68315;48.608;11.436;2024-02-04T14:24:35;3.38;;;1.60;;
78916;SDS011;68315;48.608;11.436;2024-02-04T14:27:00;4.85;;;1.85;;
78916;SDS011;68315;48.608;11.436;2024-02-04T14:29:26;2.55;;;1.65;;
78916;SDS011;68315;48.608;11.436;2024-02-04T14:31:51;3.10;;;1.45;;
78916;SDS011;68315;48.608;11.436;2024-02-04T14:34:17;2.83;;;1.40;;
78916;SDS011;68315;48.608;11.436;2024-02-04T14:36:42;2.75;;;1.50;;
78916;SDS011;68315;48.608;11.436;2024-02-04T14:39:07;4.57;;;1.20;;
78916;SDS011;68315;48.608;11.436;2024-02-04T14:41:36;4.15;;;3.05;;
78916;SDS011;68315;48.608;11.436;2024-02-04T14:44:02;20.27;;;10.50;;